sensor_id;sensor_type;location;lat;lon;timestamp;P1;durP1;ratioP1;P2;durP2;ratioP2
22737;SDS011;11536;50.860;4.286;2023-08-24T00:01:28;9.15;;;3.63;;
22737;SDS011;11536;50.860;4.286;2023-08-24T00:03:54;8.52;;;3.10;;
22737;SDS011;11536;50.860;4.286;2023-08-24T00:06:19;7.50;;;3.47;;
22737;SDS011;11536;50.860;4.286;2023-08-24T00:08:45;9.73;;;3.47;;
22737;SDS011;11536;50.860;4.286;2023-08-24T00:11:11;7.75;;;3.22;;
22737;SDS011;11536;50.860;4.286;2023-08-24T00:13:42;7.47;;;3.78;;
22737;SDS011;11536;50.860;4.286;2023-08-24T00:16:17;8.32;;;3.15;;
22737;SDS011;11536;50.860;4.286;2023-08-24T00:18:44;8.07;;;2.95;;
22737;SDS011;11536;50.860;4.286;2023-08-24T00:21:10;11.55;;;4.10;;
22737;SDS011;11536;50.860;4.286;2023-08-24T00:23:38;7.88;;;3.10;;
22737;SDS011;11536;50.860;4.286;2023-08-24T00:26:03;9.43;;;3.42;;
22737;SDS011;11536;50.860;4.286;2023-08-24T00:28:29;10.32;;;3.40;;
22737;SDS011;11536;50.860;4.286;2023-08-24T00:30:55;9.20;;;3.70;;
22737;SDS011;11536;50.860;4.286;2023-08-24T00:33:20;7.50;;;3.28;;
22737;SDS011;11536;50.860;4.286;2023-08-24T00:35:46;9.73;;;3.70;;
22737;SDS011;11536;50.860;4.286;2023-08-24T00:38:11;7.65;;;3.50;;
22737;SDS011;11536;50.860;4.286;2023-08-24T00:40:37;10.65;;;3.90;;
22737;SDS011;11536;50.860;4.286;2023-08-24T00:43:04;8.20;;;2.83;;
22737;SDS011;11536;50.860;4.286;2023-08-24T00:45:30;8.18;;;3.40;;
22737;SDS011;11536;50.860;4.286;2023-08-24T00:47:58;6.05;;;3.17;;
22737;SDS011;11536;50.860;4.286;2023-08-24T00:50:24;7.40;;;3.70;;
22737;SDS011;11536;50.860;4.286;2023-08-24T00:52:49;8.20;;;3.28;;
22737;SDS011;11536;50.860;4.286;2023-08-24T00:55:15;7.72;;;3.00;;
22737;SDS011;11536;50.860;4.286;2023-08-24T00:57:42;7.68;;;2.95;;
22737;SDS011;11536;50.860;4.286;2023-08-24T01:00:08;7.57;;;3.55;;
22737;SDS011;11536;50.860;4.286;2023-08-24T01:02:38;7.78;;;3.53;;
22737;SDS011;11536;50.860;4.286;2023-08-24T01:05:04;7.72;;;2.95;;
22737;SDS011;11536;50.860;4.286;2023-08-24T01:07:30;6.30;;;2.58;;
22737;SDS011;11536;50.860;4.286;2023-08-24T01:09:57;6.38;;;2.75;;
22737;SDS011;11536;50.860;4.286;2023-08-24T01:12:35;10.35;;;3.42;;
22737;SDS011;11536;50.860;4.286;2023-08-24T01:15:18;9.75;;;3.42;;
22737;SDS011;11536;50.860;4.286;2023-08-24T01:17:51;7.20;;;3.28;;
22737;SDS011;11536;50.860;4.286;2023-08-24T01:20:19;8.02;;;3.60;;
22737;SDS011;11536;50.860;4.286;2023-08-24T01:23:01;7.00;;;2.75;;
22737;SDS011;11536;50.860;4.286;2023-08-24T01:25:42;7.10;;;3.70;;
22737;SDS011;11536;50.860;4.286;2023-08-24T01:28:15;10.45;;;3.40;;
22737;SDS011;11536;50.860;4.286;2023-08-24T01:30:43;6.70;;;3.25;;
22737;SDS011;11536;50.860;4.286;2023-08-24T01:33:10;7.75;;;2.90;;
22737;SDS011;11536;50.860;4.286;2023-08-24T01:35:37;7.60;;;3.05;;
22737;SDS011;11536;50.860;4.286;2023-08-24T01:38:03;7.10;;;2.95;;
22737;SDS011;11536;50.860;4.286;2023-08-24T01:40:36;6.60;;;2.80;;
22737;SDS011;11536;50.860;4.286;2023-08-24T01:43:10;7.47;;;3.10;;
22737;SDS011;11536;50.860;4.286;2023-08-24T01:45:39;11.55;;;3.08;;
22737;SDS011;11536;50.860;4.286;2023-08-24T01:48:07;9.18;;;3.90;;
22737;SDS011;11536;50.860;4.286;2023-08-24T01:50:35;6.30;;;3.30;;
22737;SDS011;11536;50.860;4.286;2023-08-24T01:53:01;8.35;;;3.47;;
22737;SDS011;11536;50.860;4.286;2023-08-24T01:55:27;5.88;;;2.95;;
22737;SDS011;11536;50.860;4.286;2023-08-24T01:57:54;8.05;;;3.22;;
22737;SDS011;11536;50.860;4.286;2023-08-24T02:00:20;7.30;;;2.97;;
22737;SDS011;11536;50.860;4.286;2023-08-24T02:02:46;9.90;;;3.40;;
22737;SDS011;11536;50.860;4.286;2023-08-24T02:05:12;7.43;;;3.47;;
22737;SDS011;11536;50.860;4.286;2023-08-24T02:07:38;7.93;;;3.65;;
22737;SDS011;11536;50.860;4.286;2023-08-24T02:10:04;7.18;;;3.83;;
22737;SDS011;11536;50.860;4.286;2023-08-24T02:12:30;7.22;;;3.65;;
22737;SDS011;11536;50.860;4.286;2023-08-24T02:14:56;11.73;;;4.28;;
22737;SDS011;11536;50.860;4.286;2023-08-24T02:17:21;9.52;;;3.85;;
22737;SDS011;11536;50.860;4.286;2023-08-24T02:19:47;10.60;;;4.35;;
22737;SDS011;11536;50.860;4.286;2023-08-24T02:22:13;8.18;;;3.63;;
22737;SDS011;11536;50.860;4.286;2023-08-24T02:24:38;8.93;;;4.53;;
22737;SDS011;11536;50.860;4.286;2023-08-24T02:27:04;8.38;;;3.53;;
22737;SDS011;11536;50.860;4.286;2023-08-24T02:29:30;7.90;;;3.60;;
22737;SDS011;11536;50.860;4.286;2023-08-24T02:31:55;6.65;;;3.90;;
22737;SDS011;11536;50.860;4.286;2023-08-24T02:34:21;9.02;;;4.32;;
22737;SDS011;11536;50.860;4.286;2023-08-24T02:36:47;8.90;;;3.72;;
22737;SDS011;11536;50.860;4.286;2023-08-24T02:39:12;7.68;;;3.50;;
22737;SDS011;11536;50.860;4.286;2023-08-24T02:41:38;8.13;;;3.50;;
22737;SDS011;11536;50.860;4.286;2023-08-24T02:44:04;9.07;;;3.70;;
22737;SDS011;11536;50.860;4.286;2023-08-24T02:46:29;7.22;;;3.00;;
22737;SDS011;11536;50.860;4.286;2023-08-24T02:48:55;9.75;;;3.80;;
22737;SDS011;11536;50.860;4.286;2023-08-24T02:51:21;7.75;;;3.55;;
22737;SDS011;11536;50.860;4.286;2023-08-24T02:53:47;7.00;;;3.47;;
22737;SDS011;11536;50.860;4.286;2023-08-24T02:56:13;7.03;;;3.33;;
22737;SDS011;11536;50.860;4.286;2023-08-24T02:58:39;6.32;;;2.85;;
22737;SDS011;11536;50.860;4.286;2023-08-24T03:01:05;7.68;;;3.45;;
22737;SDS011;11536;50.860;4.286;2023-08-24T03:03:35;8.68;;;2.70;;
22737;SDS011;11536;50.860;4.286;2023-08-24T03:06:05;7.47;;;3.05;;
22737;SDS011;11536;50.860;4.286;2023-08-24T03:08:32;7.00;;;3.13;;
22737;SDS011;11536;50.860;4.286;2023-08-24T03:10:59;7.80;;;3.42;;
22737;SDS011;11536;50.860;4.286;2023-08-24T03:13:25;8.63;;;3.47;;
22737;SDS011;11536;50.860;4.286;2023-08-24T03:15:52;10.80;;;3.78;;
22737;SDS011;11536;50.860;4.286;2023-08-24T03:18:18;8.05;;;3.38;;
22737;SDS011;11536;50.860;4.286;2023-08-24T03:20:44;6.90;;;3.47;;
22737;SDS011;11536;50.860;4.286;2023-08-24T03:23:11;7.63;;;3.33;;
22737;SDS011;11536;50.860;4.286;2023-08-24T03:25:37;6.15;;;3.08;;
22737;SDS011;11536;50.860;4.286;2023-08-24T03:28:05;6.28;;;3.10;;
22737;SDS011;11536;50.860;4.286;2023-08-24T03:30:33;6.63;;;2.97;;
22737;SDS011;11536;50.860;4.286;2023-08-24T03:33:00;7.75;;;2.85;;
22737;SDS011;11536;50.860;4.286;2023-08-24T03:35:26;6.57;;;3.08;;
22737;SDS011;11536;50.860;4.286;2023-08-24T03:37:51;7.93;;;3.65;;
22737;SDS011;11536;50.860;4.286;2023-08-24T03:40:17;6.60;;;3.28;;
22737;SDS011;11536;50.860;4.286;2023-08-24T03:42:43;6.57;;;2.88;;
22737;SDS011;11536;50.860;4.286;2023-08-24T03:45:08;7.63;;;3.28;;
22737;SDS011;11536;50.860;4.286;2023-08-24T03:47:34;7.75;;;3.10;;
22737;SDS011;11536;50.860;4.286;2023-08-24T03:50:00;9.75;;;3.50;;
22737;SDS011;11536;50.860;4.286;2023-08-24T03:52:25;8.23;;;3.20;;
22737;SDS011;11536;50.860;4.286;2023-08-24T03:54:52;7.90;;;3.22;;
22737;SDS011;11536;50.860;4.286;2023-08-24T03:57:17;5.97;;;2.80;;
22737;SDS011;11536;50.860;4.286;2023-08-24T03:59:43;7.07;;;3.00;;
22737;SDS011;11536;50.860;4.286;2023-08-24T04:02:08;6.30;;;2.97;;
22737;SDS011;11536;50.860;4.286;2023-08-24T04:04:34;6.28;;;2.70;;
22737;SDS011;11536;50.860;4.286;2023-08-24T04:07:00;7.70;;;3.10;;
22737;SDS011;11536;50.860;4.286;2023-08-24T04:09:27;6.25;;;2.72;;
22737;SDS011;11536;50.860;4.286;2023-08-24T04:11:53;7.03;;;2.72;;
22737;SDS011;11536;50.860;4.286;2023-08-24T04:14:18;6.80;;;2.72;;
22737;SDS011;11536;50.860;4.286;2023-08-24T04:16:44;7.57;;;2.80;;
22737;SDS011;11536;50.860;4.286;2023-08-24T04:19:10;5.53;;;2.40;;
22737;SDS011;11536;50.860;4.286;2023-08-24T04:21:35;6.47;;;2.80;;
22737;SDS011;11536;50.860;4.286;2023-08-24T04:24:01;6.47;;;2.85;;
22737;SDS011;11536;50.860;4.286;2023-08-24T04:26:27;5.20;;;2.50;;
22737;SDS011;11536;50.860;4.286;2023-08-24T04:28:53;5.80;;;2.33;;
22737;SDS011;11536;50.860;4.286;2023-08-24T04:31:18;6.13;;;2.80;;
22737;SDS011;11536;50.860;4.286;2023-08-24T04:33:45;6.35;;;2.80;;
22737;SDS011;11536;50.860;4.286;2023-08-24T04:36:10;5.97;;;3.05;;
22737;SDS011;11536;50.860;4.286;2023-08-24T04:38:36;10.73;;;2.58;;
22737;SDS011;11536;50.860;4.286;2023-08-24T04:41:02;7.20;;;2.88;;
22737;SDS011;11536;50.860;4.286;2023-08-24T04:43:32;4.88;;;2.40;;
22737;SDS011;11536;50.860;4.286;2023-08-24T04:45:58;8.40;;;3.25;;
22737;SDS011;11536;50.860;4.286;2023-08-24T04:48:24;7.88;;;2.92;;
22737;SDS011;11536;50.860;4.286;2023-08-24T04:50:58;6.43;;;3.08;;
22737;SDS011;11536;50.860;4.286;2023-08-24T04:53:24;7.32;;;3.00;;
22737;SDS011;11536;50.860;4.286;2023-08-24T04:55:49;7.43;;;2.92;;
22737;SDS011;11536;50.860;4.286;2023-08-24T04:58:15;7.47;;;3.60;;
22737;SDS011;11536;50.860;4.286;2023-08-24T05:00:41;6.72;;;3.13;;
22737;SDS011;11536;50.860;4.286;2023-08-24T05:03:07;7.38;;;2.85;;
22737;SDS011;11536;50.860;4.286;2023-08-24T05:05:34;6.13;;;3.03;;
22737;SDS011;11536;50.860;4.286;2023-08-24T05:08:01;7.60;;;3.15;;
22737;SDS011;11536;50.860;4.286;2023-08-24T05:10:30;7.45;;;3.30;;
22737;SDS011;11536;50.860;4.286;2023-08-24T05:12:57;9.07;;;3.03;;
22737;SDS011;11536;50.860;4.286;2023-08-24T05:15:24;9.20;;;3.10;;
22737;SDS011;11536;50.860;4.286;2023-08-24T05:17:49;6.88;;;3.10;;
22737;SDS011;11536;50.860;4.286;2023-08-24T05:20:18;7.28;;;3.15;;
22737;SDS011;11536;50.860;4.286;2023-08-24T05:22:44;7.28;;;3.20;;
22737;SDS011;11536;50.860;4.286;2023-08-24T05:25:10;8.38;;;3.20;;
22737;SDS011;11536;50.860;4.286;2023-08-24T05:27:36;9.02;;;3.25;;
22737;SDS011;11536;50.860;4.286;2023-08-24T05:30:02;7.60;;;3.40;;
22737;SDS011;11536;50.860;4.286;2023-08-24T05:32:30;7.60;;;3.30;;
22737;SDS011;11536;50.860;4.286;2023-08-24T05:34:56;5.70;;;3.00;;
22737;SDS011;11536;50.860;4.286;2023-08-24T05:37:21;7.97;;;3.17;;
22737;SDS011;11536;50.860;4.286;2023-08-24T05:39:47;9.18;;;2.88;;
22737;SDS011;11536;50.860;4.286;2023-08-24T05:42:13;8.68;;;3.08;;
22737;SDS011;11536;50.860;4.286;2023-08-24T05:44:38;7.78;;;3.10;;
22737;SDS011;11536;50.860;4.286;2023-08-24T05:47:04;6.55;;;2.50;;
22737;SDS011;11536;50.860;4.286;2023-08-24T05:49:30;7.30;;;2.47;;
22737;SDS011;11536;50.860;4.286;2023-08-24T05:51:55;8.55;;;3.05;;
22737;SDS011;11536;50.860;4.286;2023-08-24T05:54:21;8.60;;;2.90;;
22737;SDS011;11536;50.860;4.286;2023-08-24T05:56:46;9.70;;;3.10;;
22737;SDS011;11536;50.860;4.286;2023-08-24T05:59:14;8.20;;;4.18;;
22737;SDS011;11536;50.860;4.286;2023-08-24T06:01:40;11.07;;;3.92;;
22737;SDS011;11536;50.860;4.286;2023-08-24T06:04:06;8.38;;;4.15;;
22737;SDS011;11536;50.860;4.286;2023-08-24T06:06:36;8.60;;;3.60;;
22737;SDS011;11536;50.860;4.286;2023-08-24T06:09:02;8.55;;;3.45;;
22737;SDS011;11536;50.860;4.286;2023-08-24T06:11:32;9.95;;;3.95;;
22737;SDS011;11536;50.860;4.286;2023-08-24T06:13:58;9.45;;;4.30;;
22737;SDS011;11536;50.860;4.286;2023-08-24T06:16:23;10.65;;;4.68;;
22737;SDS011;11536;50.860;4.286;2023-08-24T06:18:49;10.27;;;4.38;;
22737;SDS011;11536;50.860;4.286;2023-08-24T06:21:16;9.02;;;3.90;;
22737;SDS011;11536;50.860;4.286;2023-08-24T06:23:41;9.65;;;3.58;;
22737;SDS011;11536;50.860;4.286;2023-08-24T06:26:07;11.20;;;4.82;;
22737;SDS011;11536;50.860;4.286;2023-08-24T06:28:33;8.90;;;3.42;;
22737;SDS011;11536;50.860;4.286;2023-08-24T06:30:59;10.45;;;4.18;;
22737;SDS011;11536;50.860;4.286;2023-08-24T06:33:28;8.45;;;3.80;;
22737;SDS011;11536;50.860;4.286;2023-08-24T06:35:58;10.50;;;4.45;;
22737;SDS011;11536;50.860;4.286;2023-08-24T06:38:24;10.40;;;4.57;;
22737;SDS011;11536;50.860;4.286;2023-08-24T06:40:50;9.25;;;4.13;;
22737;SDS011;11536;50.860;4.286;2023-08-24T06:43:16;8.60;;;3.90;;
22737;SDS011;11536;50.860;4.286;2023-08-24T06:45:43;9.13;;;3.58;;
22737;SDS011;11536;50.860;4.286;2023-08-24T06:48:09;7.38;;;3.20;;
22737;SDS011;11536;50.860;4.286;2023-08-24T06:50:35;8.32;;;3.63;;
22737;SDS011;11536;50.860;4.286;2023-08-24T06:53:04;8.13;;;3.88;;
22737;SDS011;11536;50.860;4.286;2023-08-24T06:55:30;9.32;;;3.60;;
22737;SDS011;11536;50.860;4.286;2023-08-24T06:57:56;9.95;;;3.67;;
22737;SDS011;11536;50.860;4.286;2023-08-24T07:00:22;12.23;;;3.80;;
22737;SDS011;11536;50.860;4.286;2023-08-24T07:02:50;7.20;;;3.80;;
22737;SDS011;11536;50.860;4.286;2023-08-24T07:05:16;11.25;;;3.67;;
22737;SDS011;11536;50.860;4.286;2023-08-24T07:07:45;10.02;;;3.90;;
22737;SDS011;11536;50.860;4.286;2023-08-24T07:10:12;9.52;;;3.25;;
22737;SDS011;11536;50.860;4.286;2023-08-24T07:12:38;8.23;;;3.55;;
22737;SDS011;11536;50.860;4.286;2023-08-24T07:15:09;7.85;;;3.67;;
22737;SDS011;11536;50.860;4.286;2023-08-24T07:17:35;10.30;;;3.80;;
22737;SDS011;11536;50.860;4.286;2023-08-24T07:20:01;7.00;;;2.95;;
22737;SDS011;11536;50.860;4.286;2023-08-24T07:22:30;10.27;;;4.10;;
22737;SDS011;11536;50.860;4.286;2023-08-24T07:24:55;7.50;;;3.83;;
22737;SDS011;11536;50.860;4.286;2023-08-24T07:27:21;12.52;;;3.90;;
22737;SDS011;11536;50.860;4.286;2023-08-24T07:29:47;9.00;;;3.42;;
22737;SDS011;11536;50.860;4.286;2023-08-24T07:32:13;10.50;;;3.33;;
22737;SDS011;11536;50.860;4.286;2023-08-24T07:34:38;9.35;;;3.35;;
22737;SDS011;11536;50.860;4.286;2023-08-24T07:37:04;9.32;;;3.38;;
22737;SDS011;11536;50.860;4.286;2023-08-24T07:39:30;9.90;;;3.83;;
22737;SDS011;11536;50.860;4.286;2023-08-24T07:41:57;7.75;;;3.38;;
22737;SDS011;11536;50.860;4.286;2023-08-24T07:44:22;8.77;;;3.90;;
22737;SDS011;11536;50.860;4.286;2023-08-24T07:46:48;8.73;;;3.72;;
22737;SDS011;11536;50.860;4.286;2023-08-24T07:49:17;8.57;;;3.50;;
22737;SDS011;11536;50.860;4.286;2023-08-24T07:51:42;10.35;;;3.58;;
22737;SDS011;11536;50.860;4.286;2023-08-24T07:54:09;9.70;;;3.65;;
22737;SDS011;11536;50.860;4.286;2023-08-24T07:56:34;11.13;;;4.30;;
22737;SDS011;11536;50.860;4.286;2023-08-24T07:59:01;11.45;;;3.92;;
22737;SDS011;11536;50.860;4.286;2023-08-24T08:01:27;7.25;;;3.80;;
22737;SDS011;11536;50.860;4.286;2023-08-24T08:03:52;10.95;;;3.88;;
22737;SDS011;11536;50.860;4.286;2023-08-24T08:06:18;7.57;;;3.90;;
22737;SDS011;11536;50.860;4.286;2023-08-24T08:08:44;9.05;;;3.78;;
22737;SDS011;11536;50.860;4.286;2023-08-24T08:11:11;9.30;;;4.18;;
22737;SDS011;11536;50.860;4.286;2023-08-24T08:13:37;11.00;;;3.70;;
22737;SDS011;11536;50.860;4.286;2023-08-24T08:16:03;12.10;;;3.95;;
22737;SDS011;11536;50.860;4.286;2023-08-24T08:18:30;7.22;;;3.10;;
22737;SDS011;11536;50.860;4.286;2023-08-24T08:20:59;8.85;;;3.50;;
22737;SDS011;11536;50.860;4.286;2023-08-24T08:23:25;8.57;;;4.45;;
22737;SDS011;11536;50.860;4.286;2023-08-24T08:25:50;14.70;;;5.22;;
22737;SDS011;11536;50.860;4.286;2023-08-24T08:28:17;8.57;;;4.88;;
22737;SDS011;11536;50.860;4.286;2023-08-24T08:30:43;11.35;;;4.55;;
22737;SDS011;11536;50.860;4.286;2023-08-24T08:33:09;13.02;;;4.93;;
22737;SDS011;11536;50.860;4.286;2023-08-24T08:35:35;9.30;;;4.60;;
22737;SDS011;11536;50.860;4.286;2023-08-24T08:38:01;8.55;;;4.85;;
22737;SDS011;11536;50.860;4.286;2023-08-24T08:40:26;9.45;;;4.38;;
22737;SDS011;11536;50.860;4.286;2023-08-24T08:42:57;11.93;;;4.82;;
22737;SDS011;11536;50.860;4.286;2023-08-24T08:45:24;10.50;;;4.47;;
22737;SDS011;11536;50.860;4.286;2023-08-24T08:47:57;11.43;;;4.85;;
22737;SDS011;11536;50.860;4.286;2023-08-24T08:50:25;8.90;;;4.22;;
22737;SDS011;11536;50.860;4.286;2023-08-24T08:52:51;9.25;;;4.20;;
22737;SDS011;11536;50.860;4.286;2023-08-24T08:55:17;9.85;;;4.93;;
22737;SDS011;11536;50.860;4.286;2023-08-24T08:57:44;10.32;;;4.55;;
22737;SDS011;11536;50.860;4.286;2023-08-24T09:00:12;9.77;;;4.55;;
22737;SDS011;11536;50.860;4.286;2023-08-24T09:02:43;9.70;;;4.22;;
22737;SDS011;11536;50.860;4.286;2023-08-24T09:05:10;8.70;;;4.50;;
22737;SDS011;11536;50.860;4.286;2023-08-24T09:07:38;9.10;;;3.85;;
22737;SDS011;11536;50.860;4.286;2023-08-24T09:10:05;7.97;;;4.05;;
22737;SDS011;11536;50.860;4.286;2023-08-24T09:12:32;9.55;;;4.47;;
22737;SDS011;11536;50.860;4.286;2023-08-24T09:14:58;8.15;;;3.92;;
22737;SDS011;11536;50.860;4.286;2023-08-24T09:17:24;13.82;;;4.80;;
22737;SDS011;11536;50.860;4.286;2023-08-24T09:19:50;10.13;;;3.70;;
22737;SDS011;11536;50.860;4.286;2023-08-24T09:22:16;9.82;;;3.55;;
22737;SDS011;11536;50.860;4.286;2023-08-24T09:24:42;10.40;;;4.20;;
22737;SDS011;11536;50.860;4.286;2023-08-24T09:27:16;8.57;;;4.15;;
22737;SDS011;11536;50.860;4.286;2023-08-24T09:29:43;14.13;;;4.53;;
22737;SDS011;11536;50.860;4.286;2023-08-24T09:32:13;9.90;;;4.07;;
22737;SDS011;11536;50.860;4.286;2023-08-24T09:34:39;9.52;;;4.97;;
22737;SDS011;11536;50.860;4.286;2023-08-24T09:37:05;10.93;;;5.07;;
22737;SDS011;11536;50.860;4.286;2023-08-24T09:39:39;12.43;;;5.90;;
22737;SDS011;11536;50.860;4.286;2023-08-24T09:42:05;10.43;;;4.90;;
22737;SDS011;11536;50.860;4.286;2023-08-24T09:44:30;10.25;;;4.68;;
22737;SDS011;11536;50.860;4.286;2023-08-24T09:46:56;7.97;;;4.32;;
22737;SDS011;11536;50.860;4.286;2023-08-24T09:49:22;10.13;;;4.43;;
22737;SDS011;11536;50.860;4.286;2023-08-24T09:51:48;6.88;;;3.63;;
22737;SDS011;11536;50.860;4.286;2023-08-24T09:54:15;9.85;;;3.85;;
22737;SDS011;11536;50.860;4.286;2023-08-24T09:56:42;8.52;;;4.00;;
22737;SDS011;11536;50.860;4.286;2023-08-24T10:01:44;9.65;;;3.20;;
22737;SDS011;11536;50.860;4.286;2023-08-24T10:04:13;7.35;;;3.40;;
22737;SDS011;11536;50.860;4.286;2023-08-24T10:06:40;9.07;;;3.30;;
22737;SDS011;11536;50.860;4.286;2023-08-24T10:09:11;7.30;;;3.00;;
22737;SDS011;11536;50.860;4.286;2023-08-24T10:11:49;8.57;;;3.35;;
22737;SDS011;11536;50.860;4.286;2023-08-24T10:19:20;7.47;;;3.20;;
22737;SDS011;11536;50.860;4.286;2023-08-24T10:21:48;8.70;;;3.15;;
22737;SDS011;11536;50.860;4.286;2023-08-24T10:24:15;7.82;;;2.88;;
22737;SDS011;11536;50.860;4.286;2023-08-24T10:26:42;7.90;;;2.97;;
22737;SDS011;11536;50.860;4.286;2023-08-24T10:29:08;8.23;;;3.53;;
22737;SDS011;11536;50.860;4.286;2023-08-24T10:31:35;7.35;;;3.58;;
22737;SDS011;11536;50.860;4.286;2023-08-24T10:34:01;7.82;;;3.55;;
22737;SDS011;11536;50.860;4.286;2023-08-24T10:36:30;7.18;;;3.30;;
22737;SDS011;11536;50.860;4.286;2023-08-24T10:38:56;8.52;;;2.90;;
22737;SDS011;11536;50.860;4.286;2023-08-24T10:41:27;8.70;;;3.50;;
22737;SDS011;11536;50.860;4.286;2023-08-24T10:44:03;8.48;;;3.63;;
22737;SDS011;11536;50.860;4.286;2023-08-24T10:46:34;7.38;;;3.10;;
22737;SDS011;11536;50.860;4.286;2023-08-24T10:49:03;8.52;;;3.40;;
22737;SDS011;11536;50.860;4.286;2023-08-24T10:51:30;7.10;;;2.85;;
22737;SDS011;11536;50.860;4.286;2023-08-24T10:53:57;10.43;;;3.42;;
22737;SDS011;11536;50.860;4.286;2023-08-24T10:56:42;9.05;;;3.63;;
22737;SDS011;11536;50.860;4.286;2023-08-24T10:59:21;9.60;;;3.80;;
22737;SDS011;11536;50.860;4.286;2023-08-24T11:01:54;8.40;;;3.20;;
22737;SDS011;11536;50.860;4.286;2023-08-24T11:04:21;7.68;;;3.42;;
22737;SDS011;11536;50.860;4.286;2023-08-24T11:06:53;8.90;;;3.55;;
22737;SDS011;11536;50.860;4.286;2023-08-24T11:09:50;9.75;;;3.72;;
22737;SDS011;11536;50.860;4.286;2023-08-24T11:12:15;6.70;;;3.30;;
22737;SDS011;11536;50.860;4.286;2023-08-24T11:14:50;7.03;;;3.30;;
22737;SDS011;11536;50.860;4.286;2023-08-24T11:17:19;6.03;;;3.00;;
22737;SDS011;11536;50.860;4.286;2023-08-24T11:19:52;6.65;;;2.70;;
22737;SDS011;11536;50.860;4.286;2023-08-24T11:22:21;7.05;;;3.17;;
22737;SDS011;11536;50.860;4.286;2023-08-24T11:24:48;8.05;;;3.05;;
22737;SDS011;11536;50.860;4.286;2023-08-24T11:27:14;7.32;;;3.00;;
22737;SDS011;11536;50.860;4.286;2023-08-24T11:29:41;6.13;;;3.08;;
22737;SDS011;11536;50.860;4.286;2023-08-24T11:32:07;6.43;;;3.00;;
22737;SDS011;11536;50.860;4.286;2023-08-24T11:34:33;6.03;;;2.83;;
22737;SDS011;11536;50.860;4.286;2023-08-24T11:37:01;7.65;;;3.05;;
22737;SDS011;11536;50.860;4.286;2023-08-24T11:39:26;7.50;;;3.00;;
22737;SDS011;11536;50.860;4.286;2023-08-24T11:42:00;7.55;;;3.17;;
22737;SDS011;11536;50.860;4.286;2023-08-24T11:44:44;6.95;;;3.30;;
22737;SDS011;11536;50.860;4.286;2023-08-24T11:47:13;8.15;;;3.47;;
22737;SDS011;11536;50.860;4.286;2023-08-24T11:49:39;7.55;;;3.85;;
22737;SDS011;11536;50.860;4.286;2023-08-24T11:52:06;9.77;;;3.70;;
22737;SDS011;11536;50.860;4.286;2023-08-24T11:54:35;8.63;;;3.33;;
22737;SDS011;11536;50.860;4.286;2023-08-24T11:57:07;7.47;;;3.22;;
22737;SDS011;11536;50.860;4.286;2023-08-24T11:59:36;8.95;;;3.67;;
22737;SDS011;11536;50.860;4.286;2023-08-24T12:02:03;9.68;;;3.00;;
22737;SDS011;11536;50.860;4.286;2023-08-24T12:04:37;10.52;;;3.55;;
22737;SDS011;11536;50.860;4.286;2023-08-24T12:07:13;9.68;;;3.83;;
22737;SDS011;11536;50.860;4.286;2023-08-24T12:09:39;8.95;;;3.80;;
22737;SDS011;11536;50.860;4.286;2023-08-24T12:12:11;9.88;;;4.07;;
22737;SDS011;11536;50.860;4.286;2023-08-24T12:14:42;7.00;;;3.70;;
22737;SDS011;11536;50.860;4.286;2023-08-24T12:17:11;7.05;;;3.42;;
22737;SDS011;11536;50.860;4.286;2023-08-24T12:19:44;9.18;;;4.10;;
22737;SDS011;11536;50.860;4.286;2023-08-24T12:22:14;6.57;;;3.40;;
22737;SDS011;11536;50.860;4.286;2023-08-24T12:24:44;6.70;;;3.35;;
22737;SDS011;11536;50.860;4.286;2023-08-24T12:27:17;7.43;;;3.58;;
22737;SDS011;11536;50.860;4.286;2023-08-24T12:32:13;6.90;;;3.75;;
22737;SDS011;11536;50.860;4.286;2023-08-24T12:34:41;7.90;;;3.28;;
22737;SDS011;11536;50.860;4.286;2023-08-24T12:37:07;6.72;;;3.28;;
22737;SDS011;11536;50.860;4.286;2023-08-24T12:39:36;5.55;;;2.85;;
22737;SDS011;11536;50.860;4.286;2023-08-24T12:42:04;7.00;;;3.40;;
22737;SDS011;11536;50.860;4.286;2023-08-24T12:44:31;7.13;;;3.00;;
22737;SDS011;11536;50.860;4.286;2023-08-24T12:46:57;6.55;;;2.78;;
22737;SDS011;11536;50.860;4.286;2023-08-24T12:49:25;7.60;;;2.97;;
22737;SDS011;11536;50.860;4.286;2023-08-24T12:51:51;6.60;;;2.60;;
22737;SDS011;11536;50.860;4.286;2023-08-24T12:54:16;5.90;;;2.60;;
22737;SDS011;11536;50.860;4.286;2023-08-24T12:56:42;6.65;;;2.60;;
22737;SDS011;11536;50.860;4.286;2023-08-24T12:59:08;6.88;;;2.20;;
22737;SDS011;11536;50.860;4.286;2023-08-24T13:01:35;6.32;;;2.10;;
22737;SDS011;11536;50.860;4.286;2023-08-24T13:04:00;5.97;;;2.00;;
22737;SDS011;11536;50.860;4.286;2023-08-24T13:06:26;7.07;;;2.20;;
22737;SDS011;11536;50.860;4.286;2023-08-24T13:08:55;5.05;;;2.35;;
22737;SDS011;11536;50.860;4.286;2023-08-24T13:11:21;7.32;;;1.88;;
22737;SDS011;11536;50.860;4.286;2023-08-24T13:13:47;7.53;;;1.83;;
22737;SDS011;11536;50.860;4.286;2023-08-24T13:16:13;5.70;;;2.13;;
22737;SDS011;11536;50.860;4.286;2023-08-24T13:18:39;4.45;;;1.77;;
22737;SDS011;11536;50.860;4.286;2023-08-24T13:21:05;5.85;;;1.60;;
22737;SDS011;11536;50.860;4.286;2023-08-24T13:23:31;4.45;;;1.70;;
22737;SDS011;11536;50.860;4.286;2023-08-24T13:26:00;5.35;;;2.10;;
22737;SDS011;11536;50.860;4.286;2023-08-24T13:28:26;6.07;;;1.88;;
22737;SDS011;11536;50.860;4.286;2023-08-24T13:30:51;5.15;;;1.60;;
22737;SDS011;11536;50.860;4.286;2023-08-24T13:33:17;4.80;;;1.55;;
22737;SDS011;11536;50.860;4.286;2023-08-24T13:35:44;4.90;;;1.50;;
22737;SDS011;11536;50.860;4.286;2023-08-24T13:38:10;6.28;;;1.90;;
22737;SDS011;11536;50.860;4.286;2023-08-24T13:40:35;5.20;;;1.75;;
22737;SDS011;11536;50.860;4.286;2023-08-24T13:43:01;4.95;;;1.60;;
22737;SDS011;11536;50.860;4.286;2023-08-24T13:45:27;5.43;;;1.50;;
22737;SDS011;11536;50.860;4.286;2023-08-24T13:47:55;8.52;;;2.20;;
22737;SDS011;11536;50.860;4.286;2023-08-24T13:50:21;5.85;;;1.70;;
22737;SDS011;11536;50.860;4.286;2023-08-24T13:52:46;4.93;;;1.73;;
22737;SDS011;11536;50.860;4.286;2023-08-24T13:55:12;4.80;;;1.60;;
22737;SDS011;11536;50.860;4.286;2023-08-24T13:57:38;3.15;;;1.35;;
22737;SDS011;11536;50.860;4.286;2023-08-24T14:00:03;10.35;;;2.03;;
22737;SDS011;11536;50.860;4.286;2023-08-24T14:02:32;5.93;;;1.40;;
22737;SDS011;11536;50.860;4.286;2023-08-24T14:04:58;5.80;;;1.75;;
22737;SDS011;11536;50.860;4.286;2023-08-24T14:07:24;6.75;;;1.70;;
22737;SDS011;11536;50.860;4.286;2023-08-24T14:09:49;7.60;;;2.03;;
22737;SDS011;11536;50.860;4.286;2023-08-24T14:12:15;5.00;;;1.60;;
22737;SDS011;11536;50.860;4.286;2023-08-24T14:14:40;8.75;;;2.03;;
22737;SDS011;11536;50.860;4.286;2023-08-24T14:17:06;5.10;;;1.50;;
22737;SDS011;11536;50.860;4.286;2023-08-24T14:19:32;6.45;;;1.55;;
22737;SDS011;11536;50.860;4.286;2023-08-24T14:21:57;6.38;;;1.73;;
22737;SDS011;11536;50.860;4.286;2023-08-24T14:24:23;5.68;;;1.63;;
22737;SDS011;11536;50.860;4.286;2023-08-24T14:26:49;6.07;;;1.52;;
22737;SDS011;11536;50.860;4.286;2023-08-24T14:29:15;6.40;;;1.48;;
22737;SDS011;11536;50.860;4.286;2023-08-24T14:31:41;6.00;;;1.60;;
22737;SDS011;11536;50.860;4.286;2023-08-24T14:34:06;5.70;;;1.27;;
22737;SDS011;11536;50.860;4.286;2023-08-24T14:36:32;6.28;;;1.42;;
22737;SDS011;11536;50.860;4.286;2023-08-24T14:38:58;6.25;;;1.55;;
22737;SDS011;11536;50.860;4.286;2023-08-24T14:41:24;6.05;;;1.60;;
22737;SDS011;11536;50.860;4.286;2023-08-24T14:43:49;4.90;;;1.55;;
22737;SDS011;11536;50.860;4.286;2023-08-24T14:46:15;9.23;;;1.90;;
22737;SDS011;11536;50.860;4.286;2023-08-24T14:48:41;6.07;;;1.40;;
22737;SDS011;11536;50.860;4.286;2023-08-24T14:51:07;6.45;;;1.98;;
22737;SDS011;11536;50.860;4.286;2023-08-24T14:53:32;4.05;;;1.40;;
22737;SDS011;11536;50.860;4.286;2023-08-24T14:55:58;5.72;;;1.40;;